Time;durP1;ratioP1;P1;durP2;ratioP2;P2;SDS_P1;SDS_P2;PMS_P1;PMS_P2;Temp;Humidity;BMP_temperature;BMP_pressure;BME280_temperature;BME280_humidity;BME280_pressure;Samples;Min_cycle;Max_cycle;Signal;HPM_P1;HPM_P2
2024/03/16 00:02:08;;;;;;;;;;;;;;;10.39;65.93;99880.66;5071210;28;19924;-82
2024/03/16 00:04:33;;;;;;;;;;;;;;;10.41;65.54;99878.69;5071434;28;20011;-83
2024/03/16 00:06:58;;;;;;;;;;;;;;;10.37;66.19;99885.28;5071669;28;19920;-82
2024/03/16 00:09:24;;;;;;;;;;;;;;;10.35;66.94;99877.53;5075608;28;19909;-83
2024/03/16 00:11:50;;;;;;;;;;;;;;;10.34;66.95;99875.88;5075502;28;19912;-83
2024/03/16 00:14:15;;;;;;;;;;;;;;;10.36;63.83;99873.91;5075508;28;19920;-83
2024/03/16 00:16:41;;;;;;;;;;;;;;;10.35;65.70;99882.00;5075738;28;20339;-83
2024/03/16 00:19:06;;;;;;;;;;;;;;;10.34;64.95;99875.88;5075923;28;19944;-83
2024/03/16 00:21:31;;;;;;;;;;;;;;;10.33;66.45;99876.88;5075453;28;20309;-82
2024/03/16 00:23:57;;;;;;;;;;;;;;;10.32;66.53;99872.59;5075346;28;19916;-82
2024/03/16 00:26:22;;;;;;;;;;;;;;;10.33;65.37;99876.06;5075384;28;19979;-83
2024/03/16 00:28:47;;;;;;;;;;;;;;;10.33;64.79;99876.06;5075345;28;19916;-82
2024/03/16 00:31:13;;;;;;;;;;;;;;;10.31;65.85;99878.84;5075351;28;19912;-84
2024/03/16 00:33:38;;;;;;;;;;;;;;;10.31;65.45;99880.66;5075283;28;20283;-82
2024/03/16 00:36:04;;;;;;;;;;;;;;;10.31;64.85;99873.59;5074013;28;20294;-83
2024/03/16 00:38:29;;;;;;;;;;;;;;;10.30;64.04;99869.28;5075470;28;19912;-82
2024/03/16 00:40:54;;;;;;;;;;;;;;;10.26;65.44;99870.63;5075211;28;19920;-83
2024/03/16 00:43:20;;;;;;;;;;;;;;;10.22;66.26;99871.94;5075032;28;20313;-83
2024/03/16 00:45:45;;;;;;;;;;;;;;;10.21;65.25;99866.84;5075040;28;19921;-83
2024/03/16 00:48:12;;;;;;;;;;;;;;;10.19;66.57;99867.81;5074856;28;19912;-82
2024/03/16 00:50:37;;;;;;;;;;;;;;;10.17;67.25;99861.03;5073559;28;19913;-83
2024/03/16 00:53:03;;;;;;;;;;;;;;;10.16;67.34;99854.13;5073658;28;19913;-83
2024/03/16 00:55:28;;;;;;;;;;;;;;;10.15;66.59;99858.56;5074671;28;19912;-82
2024/03/16 00:57:53;;;;;;;;;;;;;;;10.17;66.17;99856.59;5073498;28;19913;-83
2024/03/16 01:00:18;;;;;;;;;;;;;;;10.13;67.25;99852.63;5074690;28;19956;-82
2024/03/16 01:02:44;;;;;;;;;;;;;;;10.11;67.21;99851.16;5074331;28;19924;-83
2024/03/16 01:05:09;;;;;;;;;;;;;;;10.11;67.04;99854.63;5074660;28;20302;-82
2024/03/16 01:07:34;;;;;;;;;;;;;;;10.10;65.71;99855.63;5074709;28;20030;-83
2024/03/16 01:10:00;;;;;;;;;;;;;;;10.09;66.30;99851.31;5073299;28;19913;-83
2024/03/16 01:12:25;;;;;;;;;;;;;;;10.08;66.02;99854.13;5074640;28;19916;-83
2024/03/16 01:14:51;;;;;;;;;;;;;;;10.04;66.63;99848.38;5074867;28;19912;-83
2024/03/16 01:17:16;;;;;;;;;;;;;;;10.03;66.03;99845.91;5073130;28;20399;-82
2024/03/16 01:19:43;;;;;;;;;;;;;;;10.01;65.86;99855.78;5072448;28;20316;-83
2024/03/16 01:22:08;;;;;;;;;;;;;;;9.96;66.96;99861.56;5072724;28;19921;-83
2024/03/16 01:24:33;;;;;;;;;;;;;;;9.95;67.14;99859.91;5074283;28;19913;-82
2024/03/16 01:26:59;;;;;;;;;;;;;;;9.96;67.15;99853.66;5074386;28;19971;-83
2024/03/16 01:29:25;;;;;;;;;;;;;;;9.93;67.44;99863.72;5074178;28;19923;-83
2024/03/16 01:31:50;;;;;;;;;;;;;;;9.91;67.65;99857.78;5074201;28;19904;-83
2024/03/16 01:34:16;;;;;;;;;;;;;;;9.89;67.36;99863.22;5074052;28;19913;-84
2024/03/16 01:36:41;;;;;;;;;;;;;;;9.85;67.60;99862.72;5074126;28;20003;-83
2024/03/16 01:39:11;;;;;;;;;;;;;;;9.81;67.50;99855.31;5073842;28;19944;-84
2024/03/16 01:41:36;;;;;;;;;;;;;;;9.78;67.13;99859.09;5074035;28;19913;-82
2024/03/16 01:44:12;;;;;;;;;;;;;;;9.78;67.19;99859.09;5073919;28;19922;-82
2024/03/16 01:46:39;;;;;;;;;;;;;;;9.79;67.24;99852.84;5073892;28;19912;-82
2024/03/16 01:49:05;;;;;;;;;;;;;;;9.81;67.19;99860.59;5073802;28;19947;-83
2024/03/16 01:51:31;;;;;;;;;;;;;;;9.76;66.87;99853.16;5073639;28;20003;-82
2024/03/16 01:53:56;;;;;;;;;;;;;;;9.75;66.93;99861.25;5073523;28;19959;-83
2024/03/16 01:56:21;;;;;;;;;;;;;;;9.73;67.31;99860.59;5073514;28;20400;-83
2024/03/16 01:58:48;;;;;;;;;;;;;;;9.65;67.38;99874.56;5073629;28;19913;-83
2024/03/16 02:01:14;;;;;;;;;;;;;;;9.62;66.99;99871.44;5073509;28;19912;-84
2024/03/16 02:03:40;;;;;;;;;;;;;;;9.61;66.97;99872.41;5071917;28;19920;-82
2024/03/16 02:06:06;;;;;;;;;;;;;;;9.60;67.23;99874.22;5073745;28;19940;-82
2024/03/16 02:08:31;;;;;;;;;;;;;;;9.62;66.64;99876.69;5072144;28;19966;-83
2024/03/16 02:10:57;;;;;;;;;;;;;;;9.62;67.29;99879.34;5073786;28;19913;-82
2024/03/16 02:13:22;;;;;;;;;;;;;;;9.62;67.36;99877.53;5073175;28;19983;-84
2024/03/16 02:15:47;;;;;;;;;;;;;;;9.60;67.23;99876.88;5073138;28;19954;-82
2024/03/16 02:18:13;;;;;;;;;;;;;;;9.60;66.82;99883.94;5073215;28;19912;-83
2024/03/16 02:20:38;;;;;;;;;;;;;;;9.61;66.68;99877.69;5073238;28;19913;-82
2024/03/16 02:23:04;;;;;;;;;;;;;;;9.59;66.11;99882.28;5071954;28;20405;-82
2024/03/16 02:25:29;;;;;;;;;;;;;;;9.54;66.25;99886.25;5073191;28;19913;-82
2024/03/16 02:27:54;;;;;;;;;;;;;;;9.52;66.29;99885.59;5073032;28;19939;-83
2024/03/16 02:30:19;;;;;;;;;;;;;;;9.49;66.87;99888.56;5072555;28;19921;-83
2024/03/16 02:32:45;;;;;;;;;;;;;;;9.48;66.61;99886.91;5072099;28;19916;-83
2024/03/16 02:35:10;;;;;;;;;;;;;;;9.47;66.90;99881.78;5072787;28;19913;-83
2024/03/16 02:37:36;;;;;;;;;;;;;;;9.39;67.53;99884.41;5072985;28;19913;-82
2024/03/16 02:40:03;;;;;;;;;;;;;;;9.37;67.14;99891.66;5072845;28;19913;-83
2024/03/16 02:42:29;;;;;;;;;;;;;;;9.40;67.44;99889.53;5072729;28;19923;-82
2024/03/16 02:44:54;;;;;;;;;;;;;;;9.39;67.71;99897.59;5072688;28;19916;-83
2024/03/16 02:47:20;;;;;;;;;;;;;;;9.36;67.59;99900.56;5071460;28;20320;-82
2024/03/16 02:49:48;;;;;;;;;;;;;;;9.38;67.33;99914.38;5072762;28;19912;-83
2024/03/16 02:52:13;;;;;;;;;;;;;;;9.39;66.75;99906.31;5072579;28;20006;-83
2024/03/16 02:54:38;;;;;;;;;;;;;;;9.38;67.09;99907.31;5072636;28;19943;-82
2024/03/16 02:57:03;;;;;;;;;;;;;;;9.34;67.26;99916.53;5072359;28;19915;-83
2024/03/16 02:59:29;;;;;;;;;;;;;;;9.35;66.76;99907.63;5071173;28;19912;-83
2024/03/16 03:01:57;;;;;;;;;;;;;;;9.35;66.02;99917.34;5072265;28;19916;-84
2024/03/16 03:04:23;;;;;;;;;;;;;;;9.28;66.11;99914.53;5072443;28;19954;-83
2024/03/16 03:06:48;;;;;;;;;;;;;;;9.21;66.26;99918.78;5072365;28;20304;-82
2024/03/16 03:09:14;;;;;;;;;;;;;;;9.15;66.57;99922.88;5072251;28;19947;-84
2024/03/16 03:11:39;;;;;;;;;;;;;;;9.07;66.11;99920.22;5072502;28;20396;-83
2024/03/16 03:14:06;;;;;;;;;;;;;;;9.00;66.37;99924.47;5072816;28;19966;-82
2024/03/16 03:16:31;;;;;;;;;;;;;;;8.93;65.93;99918.19;5072578;28;19916;-84
2024/03/16 03:18:56;;;;;;;;;;;;;;;8.84;66.14;99925.19;5072821;28;19919;-83
2024/03/16 03:21:22;;;;;;;;;;;;;;;8.81;66.77;99925.53;5072506;28;19912;-84
2024/03/16 03:23:47;;;;;;;;;;;;;;;8.77;66.38;99929.44;5072649;28;19999;-84
2024/03/16 03:26:13;;;;;;;;;;;;;;;8.74;66.78;99928.94;5072127;28;20007;-83
2024/03/16 03:28:38;;;;;;;;;;;;;;;8.71;66.86;99930.06;5071918;28;19913;-82
2024/03/16 03:31:04;;;;;;;;;;;;;;;8.71;66.65;99935.34;5071898;28;20361;-84
2024/03/16 03:33:29;;;;;;;;;;;;;;;8.67;66.84;99943.72;5070475;28;19912;-84
2024/03/16 03:35:55;;;;;;;;;;;;;;;8.67;66.82;99941.91;5070390;28;20377;-84
2024/03/16 03:38:20;;;;;;;;;;;;;;;8.69;66.92;99941.75;5072122;28;20007;-84
2024/03/16 03:40:45;;;;;;;;;;;;;;;8.71;67.21;99945.88;5072282;28;19999;-83
2024/03/16 03:43:22;;;;;;;;;;;;;;;8.71;66.52;99948.50;5071843;28;20012;-84
2024/03/16 03:45:50;;;;;;;;;;;;;;;8.68;66.29;99945.34;5071779;28;19948;-82
2024/03/16 03:50:50;;;;;;;;;;;;;;;8.56;67.15;99945.63;5071703;28;19912;-83
2024/03/16 03:53:16;;;;;;;;;;;;;;;8.47;67.09;99948.34;5070352;28;20396;-82
2024/03/16 03:55:42;;;;;;;;;;;;;;;8.44;67.44;99949.50;5071474;28;19912;-82
2024/03/16 03:58:07;;;;;;;;;;;;;;;8.42;67.20;99942.72;5071514;28;19913;-83
2024/03/16 04:00:33;;;;;;;;;;;;;;;8.38;67.30;99955.38;5070208;28;20434;-83
2024/03/16 04:02:59;;;;;;;;;;;;;;;8.34;67.81;99959.28;5071178;28;19925;-83
2024/03/16 04:05:26;;;;;;;;;;;;;;;8.19;67.12;99966.88;5069891;28;20146;-82
2024/03/16 04:07:52;;;;;;;;;;;;;;;8.17;67.44;99970.59;5070197;28;19916;-84
2024/03/16 04:10:18;;;;;;;;;;;;;;;8.17;67.10;99966.16;5071638;28;19927;-82
2024/03/16 04:12:44;;;;;;;;;;;;;;;8.17;67.08;99968.78;5071851;28;19920;-82
2024/03/16 04:15:09;;;;;;;;;;;;;;;8.16;67.06;99969.78;5071959;28;19912;-82
2024/03/16 04:17:34;;;;;;;;;;;;;;;8.16;66.82;99964.50;5070157;28;19916;-83
2024/03/16 04:19:59;;;;;;;;;;;;;;;8.15;67.22;99968.13;5071572;28;19908;-83
2024/03/16 04:22:25;;;;;;;;;;;;;;;8.12;67.51;99965.78;5071131;28;19916;-83
2024/03/16 04:24:50;;;;;;;;;;;;;;;8.11;66.92;99969.41;5071231;28;20069;-83
2024/03/16 04:27:15;;;;;;;;;;;;;;;8.09;66.83;99978.44;5071413;28;19916;-82
2024/03/16 04:29:40;;;;;;;;;;;;;;;6.31;66.70;99697.28;5071399;28;20366;-82
2024/03/16 04:32:06;;;;;;;;;;;;;;;7.97;67.06;99978.66;5071202;28;19913;-82
2024/03/16 04:34:31;;;;;;;;;;;;;;;7.97;67.98;99985.72;5071018;28;20439;-83
2024/03/16 04:36:56;;;;;;;;;;;;;;;7.99;67.06;99978.50;5070210;28;20027;-83
2024/03/16 04:39:22;;;;;;;;;;;;;;;7.93;67.99;99976.47;5071204;28;19970;-84
2024/03/16 04:41:48;;;;;;;;;;;;;;;7.86;68.42;99981.50;5071108;28;20002;-84
2024/03/16 04:44:13;;;;;;;;;;;;;;;7.89;68.11;99996.16;5071084;28;19916;-83
2024/03/16 04:46:38;;;;;;;;;;;;;;;7.90;68.46;99993.38;5071431;28;19912;-83
2024/03/16 04:49:04;;;;;;;;;;;;;;;7.96;68.59;99994.59;5071200;28;19920;-83
2024/03/16 04:51:30;;;;;;;;;;;;;;;7.96;68.14;100000.66;5071365;28;19970;-81
2024/03/16 04:53:56;;;;;;;;;;;;;;;7.93;67.65;100002.78;5071320;28;20311;-84
2024/03/16 04:56:22;;;;;;;;;;;;;;;7.89;68.62;100007.50;5074633;28;20289;-84
2024/03/16 04:58:47;;;;;;;;;;;;;;;7.88;68.18;100008.47;5074678;28;19963;-83
2024/03/16 05:01:13;;;;;;;;;;;;;;;7.88;68.33;100010.28;5074716;28;20357;-83
2024/03/16 05:03:38;;;;;;;;;;;;;;;7.85;68.39;100008.78;5074965;28;19920;-84
2024/03/16 05:06:04;;;;;;;;;;;;;;;7.81;68.04;100015.31;5074660;28;19922;-81
2024/03/16 05:08:29;;;;;;;;;;;;;;;7.71;68.97;100016.34;5073203;28;19913;-83
2024/03/16 05:10:55;;;;;;;;;;;;;;;7.63;68.48;100015.28;5074600;28;19982;-83
2024/03/16 05:13:20;;;;;;;;;;;;;;;7.47;69.17;100022.97;5073235;28;19913;-83
2024/03/16 05:15:45;;;;;;;;;;;;;;;7.30;69.36;100018.47;5074370;28;19993;-82
2024/03/16 05:18:14;;;;;;;;;;;;;;;7.30;69.32;100021.94;5074518;28;19912;-83
2024/03/16 05:20:39;;;;;;;;;;;;;;;7.36;69.35;100023.16;5074376;28;19975;-82
2024/03/16 05:23:04;;;;;;;;;;;;;;;7.45;68.28;100017.06;5074322;28;19920;-81
2024/03/16 05:25:30;;;;;;;;;;;;;;;7.52;68.09;100015.50;5074474;28;20349;-81
2024/03/16 05:27:55;;;;;;;;;;;;;;;7.58;68.45;100024.59;5073085;28;20399;-83
2024/03/16 05:30:20;;;;;;;;;;;;;;;7.60;68.67;100025.25;5074457;28;19920;-84
2024/03/16 05:32:45;;;;;;;;;;;;;;;6.88;68.91;99911.28;5074151;28;19970;-83
2024/03/16 05:35:11;;;;;;;;;;;;;;;7.61;69.00;100030.38;5072806;28;19919;-84
2024/03/16 05:37:36;;;;;;;;;;;;;;;7.62;69.21;100023.31;5074514;28;19944;-82
2024/03/16 05:40:02;;;;;;;;;;;;;;;7.65;68.45;100028.28;5074030;28;19948;-84
2024/03/16 05:42:28;;;;;;;;;;;;;;;7.68;68.65;100024.53;5073889;28;20381;-82
2024/03/16 05:44:53;;;;;;;;;;;;;;;7.67;68.65;100017.63;5073665;28;20389;-82
2024/03/16 05:47:21;;;;;;;;;;;;;;;7.72;68.97;100028.50;5072651;28;19970;-83
2024/03/16 05:49:47;;;;;;;;;;;;;;;7.73;69.19;100038.88;5073835;28;19912;-82
2024/03/16 05:52:12;;;;;;;;;;;;;;;7.74;71.32;100037.06;5073921;28;19916;-84
2024/03/16 05:54:37;;;;;;;;;;;;;;;7.76;69.29;100037.75;5073758;28;19956;-82
2024/03/16 05:57:03;;;;;;;;;;;;;;;7.81;69.72;100030.25;5073636;28;19935;-83
2024/03/16 05:59:29;;;;;;;;;;;;;;;7.82;69.33;100026.66;5073594;28;19913;-81
2024/03/16 06:01:56;;;;;;;;;;;;;;;7.79;69.68;100032.19;5072127;28;19916;-83
2024/03/16 06:04:21;;;;;;;;;;;;;;;7.89;69.71;100032.97;5073410;28;19917;-83
2024/03/16 06:06:46;;;;;;;;;;;;;;;7.97;68.76;100027.78;5073291;28;20483;-84
2024/03/16 06:09:12;;;;;;;;;;;;;;;8.04;69.57;100035.91;5073672;28;20305;-83
2024/03/16 06:11:37;;;;;;;;;;;;;;;8.12;69.91;100030.72;5073473;28;19991;-82
2024/03/16 06:14:04;;;;;;;;;;;;;;;8.19;69.30;100040.53;5073340;28;19913;-84
2024/03/16 06:16:29;;;;;;;;;;;;;;;8.16;70.06;100035.53;5073529;28;19912;-82
2024/03/16 06:18:55;;;;;;;;;;;;;;;8.11;70.21;100040.41;5073361;28;20301;-83
2024/03/16 06:21:20;;;;;;;;;;;;;;;8.08;70.65;100038.09;5073255;28;19995;-83
2024/03/16 06:23:46;;;;;;;;;;;;;;;8.15;71.18;100033.88;5071671;28;20419;-83
2024/03/16 06:26:17;;;;;;;;;;;;;;;8.22;70.45;100032.31;5073059;28;20373;-82
2024/03/16 06:28:43;;;;;;;;;;;;;;;8.32;70.13;100040.13;5071552;28;20310;-84
2024/03/16 06:31:10;;;;;;;;;;;;;;;8.36;70.22;100032.81;5072760;28;19916;-81
2024/03/16 06:33:36;;;;;;;;;;;;;;;8.44;69.92;100038.13;5072634;28;20003;-83
2024/03/16 06:36:02;;;;;;;;;;;;;;;8.49;70.17;100041.97;5072677;28;19908;-84
2024/03/16 06:38:29;;;;;;;;;;;;;;;8.55;69.41;100043.16;5072710;28;20354;-82
2024/03/16 06:40:55;;;;;;;;;;;;;;;8.59;69.34;100044.50;5072616;28;19913;-82
2024/03/16 06:43:20;;;;;;;;;;;;;;;8.65;70.64;100040.44;5072773;28;20007;-82
2024/03/16 06:45:45;;;;;;;;;;;;;;;8.73;69.18;100037.84;5072719;28;19979;-82
2024/03/16 06:48:11;;;;;;;;;;;;;;;8.77;69.89;100047.91;5072667;28;19971;-82
2024/03/16 06:50:36;;;;;;;;;;;;;;;8.84;69.31;100043.69;5071358;28;19912;-83
2024/03/16 06:53:02;;;;;;;;;;;;;;;8.92;69.42;100050.84;5072652;28;19920;-83
2024/03/16 06:55:27;;;;;;;;;;;;;;;8.95;68.56;100047.91;5072386;28;20003;-83
2024/03/16 06:57:52;;;;;;;;;;;;;;;9.02;68.72;100050.75;5072663;28;20015;-82
2024/03/16 07:00:17;;;;;;;;;;;;;;;9.14;69.03;100046.84;5071153;28;19912;-83
2024/03/16 07:02:43;;;;;;;;;;;;;;;9.24;68.65;100051.03;5070883;28;19920;-83
2024/03/16 07:05:09;;;;;;;;;;;;;;;9.30;68.83;100041.66;5072177;28;19912;-83
2024/03/16 07:07:34;;;;;;;;;;;;;;;9.37;68.25;100045.31;5070984;28;19916;-83
2024/03/16 07:10:00;;;;;;;;;;;;;;;9.45;68.51;100060.34;5072305;28;19920;-82
2024/03/16 07:12:25;;;;;;;;;;;;;;;9.40;68.33;100052.91;5072193;28;19995;-83
2024/03/16 07:14:50;;;;;;;;;;;;;;;9.43;68.45;100054.41;5072140;28;20305;-83
2024/03/16 07:17:15;;;;;;;;;;;;;;;9.52;67.91;100056.91;5071692;28;19963;-83
2024/03/16 07:19:41;;;;;;;;;;;;;;;9.65;67.84;100050.38;5072193;28;19912;-83
2024/03/16 07:22:06;;;;;;;;;;;;;;;9.72;68.38;100060.16;5070584;28;20312;-82
2024/03/16 07:24:31;;;;;;;;;;;;;;;9.78;68.47;100058.69;5070488;28;19913;-82
2024/03/16 07:26:56;;;;;;;;;;;;;;;9.83;68.01;100057.22;5072017;28;20368;-82
2024/03/16 07:29:22;;;;;;;;;;;;;;;9.86;67.17;100069.25;5071969;28;19919;-83
2024/03/16 07:31:49;;;;;;;;;;;;;;;9.87;67.51;100061.19;5071999;28;19913;-83
2024/03/16 07:34:15;;;;;;;;;;;;;;;9.93;67.51;100064.16;5071932;28;20404;-83
2024/03/16 07:36:40;;;;;;;;;;;;;;;9.93;67.32;100062.34;5071838;28;20378;-82
2024/03/16 07:39:09;;;;;;;;;;;;;;;10.00;66.29;100067.81;5071842;28;19912;-83
2024/03/16 07:41:35;;;;;;;;;;;;;;;9.98;67.52;100065.34;5071774;28;19923;-82
2024/03/16 07:44:01;;;;;;;;;;;;;;;10.04;67.14;100066.50;5071800;28;19916;-82
2024/03/16 07:46:26;;;;;;;;;;;;;;;10.11;66.28;100067.50;5071937;28;19985;-82
2024/03/16 07:48:51;;;;;;;;;;;;;;;10.14;66.12;100065.38;5071709;28;19913;-82
2024/03/16 07:51:17;;;;;;;;;;;;;;;10.17;66.45;100059.75;5071767;28;19912;-82
2024/03/16 07:53:42;;;;;;;;;;;;;;;10.06;67.13;100065.34;5071728;28;19923;-82
2024/03/16 07:56:09;;;;;;;;;;;;;;;10.12;66.55;100067.34;5071550;28;19912;-82
2024/03/16 07:58:36;;;;;;;;;;;;;;;10.12;66.67;100067.34;5071666;28;19939;-82
2024/03/16 08:01:01;;;;;;;;;;;;;;;10.13;66.05;100069.00;5071639;28;19920;-82
2024/03/16 08:03:26;;;;;;;;;;;;;;;10.13;67.28;100068.16;5071298;28;19921;-83
2024/03/16 08:05:52;;;;;;;;;;;;;;;10.19;66.33;100070.97;5071635;28;20290;-82
2024/03/16 08:08:17;;;;;;;;;;;;;;;10.25;66.15;100069.53;5071737;28;19912;-83
2024/03/16 08:10:42;;;;;;;;;;;;;;;10.33;65.97;100069.53;5071469;28;20373;-82
2024/03/16 08:13:07;;;;;;;;;;;;;;;10.38;66.22;100069.06;5070132;28;20003;-83
2024/03/16 08:15:33;;;;;;;;;;;;;;;10.43;65.86;100067.59;5071396;28;19912;-82
2024/03/16 08:18:00;;;;;;;;;;;;;;;10.38;65.59;100069.88;5071359;28;19962;-82
2024/03/16 08:20:25;;;;;;;;;;;;;;;10.41;65.65;100068.75;5071363;28;19916;-82
2024/03/16 08:22:54;;;;;;;;;;;;;;;10.48;65.81;100075.84;5071140;28;19923;-82
2024/03/16 08:25:22;;;;;;;;;;;;;;;10.50;65.54;100073.06;5071028;28;19919;-82
2024/03/16 08:27:48;;;;;;;;;;;;;;;10.57;65.54;100083.78;5071272;28;19912;-81
2024/03/16 08:30:13;;;;;;;;;;;;;;;10.63;65.83;100072.56;5073439;28;20408;-82
2024/03/16 08:32:39;;;;;;;;;;;;;;;10.65;65.15;100073.22;5073896;28;20379;-82
2024/03/16 08:35:05;;;;;;;;;;;;;;;10.70;65.35;100078.81;5075053;28;19960;-82
2024/03/16 08:37:30;;;;;;;;;;;;;;;10.70;65.81;100076.19;5075280;28;19981;-82
2024/03/16 08:39:56;;;;;;;;;;;;;;;10.75;65.10;100073.88;5073914;28;20432;-82
2024/03/16 08:42:21;;;;;;;;;;;;;;;10.79;65.31;100076.00;5075200;28;19920;-82
2024/03/16 08:44:46;;;;;;;;;;;;;;;10.78;65.01;100087.56;5073707;28;19912;-82
2024/03/16 08:47:11;;;;;;;;;;;;;;;10.76;64.91;100071.06;5074955;28;20381;-82
2024/03/16 08:49:37;;;;;;;;;;;;;;;10.75;64.69;100072.06;5075031;28;19916;-82
2024/03/16 08:52:02;;;;;;;;;;;;;;;10.83;65.53;100079.16;5074982;28;20007;-82
2024/03/16 08:54:29;;;;;;;;;;;;;;;10.92;64.93;100067.59;5074904;28;19913;-82
2024/03/16 08:56:55;;;;;;;;;;;;;;;10.94;64.90;100070.88;5074657;28;20024;-82
2024/03/16 08:59:20;;;;;;;;;;;;;;;10.93;64.52;100076.31;5073391;28;19955;-81
2024/03/16 09:01:45;;;;;;;;;;;;;;;10.97;64.36;100080.28;5074547;28;19912;-81
2024/03/16 09:04:12;;;;;;;;;;;;;;;11.01;64.55;100071.03;5074638;28;20313;-82
2024/03/16 09:06:40;;;;;;;;;;;;;;;11.05;64.07;100080.28;5074467;28;20392;-82
2024/03/16 09:09:11;;;;;;;;;;;;;;;11.13;64.57;100077.63;5074278;28;20385;-81
2024/03/16 09:11:39;;;;;;;;;;;;;;;11.14;64.15;100084.56;5074346;28;19919;-82
2024/03/16 09:14:07;;;;;;;;;;;;;;;11.11;64.14;100077.78;5074431;28;19913;-82
2024/03/16 09:16:40;;;;;;;;;;;;;;;11.16;64.12;100082.59;5073138;28;20367;-82
2024/03/16 09:19:06;;;;;;;;;;;;;;;11.26;63.94;100083.22;5073152;28;19913;-82
2024/03/16 09:21:31;;;;;;;;;;;;;;;11.38;63.79;100081.88;5073100;28;19919;-81
2024/03/16 09:23:57;;;;;;;;;;;;;;;11.58;63.21;100084.94;5074209;28;19924;-82
2024/03/16 09:26:22;;;;;;;;;;;;;;;11.71;62.79;100079.94;5074241;28;20045;-81
2024/03/16 09:28:48;;;;;;;;;;;;;;;11.73;62.64;100080.59;5074124;28;19963;-82
2024/03/16 09:31:13;;;;;;;;;;;;;;;11.83;62.79;100069.81;5074027;28;19913;-81
2024/03/16 09:33:38;;;;;;;;;;;;;;;11.96;62.29;100077.22;5074017;28;19912;-81
2024/03/16 09:36:06;;;;;;;;;;;;;;;12.05;61.91;100063.78;5072809;28;19912;-82
2024/03/16 09:38:32;;;;;;;;;;;;;;;12.23;61.17;100068.78;5074083;28;19913;-82
2024/03/16 09:40:57;;;;;;;;;;;;;;;12.23;60.95;100067.97;5073364;28;19935;-81
2024/03/16 09:43:23;;;;;;;;;;;;;;;12.26;61.21;100057.84;5074083;28;20377;-82
2024/03/16 09:45:48;;;;;;;;;;;;;;;12.34;61.03;100049.84;5073887;28;20432;-81
2024/03/16 09:48:14;;;;;;;;;;;;;;;12.41;60.97;100060.53;5073775;28;19999;-81
2024/03/16 09:50:47;;;;;;;;;;;;;;;12.41;61.06;100055.25;5072373;28;19916;-81
2024/03/16 09:53:33;;;;;;;;;;;;;;;12.37;61.06;100046.00;5073728;28;19924;-81
2024/03/16 09:56:07;;;;;;;;;;;;;;;12.41;61.25;100049.94;5072049;28;19924;-81
2024/03/16 09:58:34;;;;;;;;;;;;;;;12.80;60.79;100046.34;5073806;28;20004;-81
2024/03/16 10:01:01;;;;;;;;;;;;;;;13.04;60.04;100046.91;5073695;28;19960;-81
2024/03/16 10:03:27;;;;;;;;;;;;;;;13.08;59.70;100042.06;5073372;28;19944;-82
2024/03/16 10:05:52;;;;;;;;;;;;;;;13.16;59.75;100044.63;5073568;28;20378;-81
2024/03/16 10:08:17;;;;;;;;;;;;;;;13.52;59.20;100033.34;5073496;28;19912;-81
2024/03/16 10:10:43;;;;;;;;;;;;;;;13.87;58.24;100034.38;5073427;28;20358;-81
2024/03/16 10:13:10;;;;;;;;;;;;;;;14.09;57.98;100032.56;5073565;28;20504;-81
2024/03/16 10:15:45;;;;;;;;;;;;;;;14.22;57.13;100016.78;5072115;28;19965;-81
2024/03/16 10:18:11;;;;;;;;;;;;;;;14.47;56.32;100017.25;5073396;28;20382;-81
2024/03/16 10:20:36;;;;;;;;;;;;;;;14.63;55.92;100022.28;5073079;28;19919;-81
2024/03/16 10:23:01;;;;;;;;;;;;;;;14.74;55.90;100015.63;5073122;28;19916;-81
2024/03/16 10:25:27;;;;;;;;;;;;;;;14.93;55.32;100012.31;5073134;28;20343;-82
2024/03/16 10:27:54;;;;;;;;;;;;;;;15.09;54.75;100005.84;5071868;28;19934;-80
2024/03/16 10:30:20;;;;;;;;;;;;;;;15.23;54.70;100003.06;5073124;28;19912;-81
2024/03/16 10:32:48;;;;;;;;;;;;;;;15.34;54.00;100007.00;5073258;28;19932;-79
2024/03/16 10:35:15;;;;;;;;;;;;;;;15.59;53.63;100007.34;5073043;28;19966;-80
2024/03/16 10:37:42;;;;;;;;;;;;;;;15.90;53.71;99993.53;5072917;28;19951;-81
2024/03/16 10:40:21;;;;;;;;;;;;;;;15.93;53.15;99993.13;5072906;28;19912;-81
2024/03/16 10:42:48;;;;;;;;;;;;;;;15.98;52.56;99996.00;5072886;28;19916;-81
2024/03/16 10:45:16;;;;;;;;;;;;;;;16.09;52.18;99987.44;5071499;28;19939;-81
2024/03/16 10:47:44;;;;;;;;;;;;;;;16.37;52.02;99989.94;5072836;28;19959;-80
2024/03/16 10:50:10;;;;;;;;;;;;;;;16.60;51.83;99983.38;5072913;28;20385;-81
2024/03/16 10:52:41;;;;;;;;;;;;;;;16.70;51.09;99989.13;5071623;28;19920;-79
2024/03/16 10:55:10;;;;;;;;;;;;;;;16.91;51.14;99978.22;5072244;28;19920;-79
2024/03/16 10:57:36;;;;;;;;;;;;;;;17.00;50.53;99971.63;5072205;28;20385;-80
2024/03/16 11:00:12;;;;;;;;;;;;;;;17.15;50.54;99969.56;5072577;28;19913;-80
2024/03/16 11:02:45;;;;;;;;;;;;;;;17.15;50.07;99966.91;5072175;28;19925;-80
2024/03/16 11:05:31;;;;;;;;;;;;;;;17.32;50.06;99967.25;5072058;28;19913;-80
2024/03/16 11:08:03;;;;;;;;;;;;;;;17.58;49.39;99962.81;5072214;28;19962;-80
2024/03/16 11:10:38;;;;;;;;;;;;;;;17.81;48.50;99959.66;5071400;28;20343;-80
2024/03/16 11:13:15;;;;;;;;;;;;;;;18.05;49.35;99951.69;5072326;28;20345;-80
2024/03/16 11:15:41;;;;;;;;;;;;;;;18.05;48.78;99950.88;5072225;28;19916;-80
2024/03/16 11:18:15;;;;;;;;;;;;;;;18.01;45.55;99947.00;5072223;28;19919;-80
2024/03/16 11:20:42;;;;;;;;;;;;;;;18.03;48.16;99942.25;5072068;28;20298;-80
2024/03/16 11:23:20;;;;;;;;;;;;;;;18.23;45.98;99931.41;5070640;28;19916;-79
2024/03/16 11:25:47;;;;;;;;;;;;;;;18.27;46.59;99932.63;5072002;28;19916;-80
2024/03/16 11:28:12;;;;;;;;;;;;;;;18.25;47.51;99929.34;5070550;28;20347;-80
2024/03/16 11:30:38;;;;;;;;;;;;;;;18.39;47.28;99929.00;5070491;28;19995;-80
2024/03/16 11:33:16;;;;;;;;;;;;;;;18.20;46.02;99921.16;5071786;28;19912;-80
2024/03/16 11:35:41;;;;;;;;;;;;;;;18.13;45.11;99917.72;5071705;28;19912;-80
2024/03/16 11:38:10;;;;;;;;;;;;;;;18.40;44.42;99914.59;5071833;28;19923;-80
2024/03/16 11:40:37;;;;;;;;;;;;;;;18.43;44.91;99908.81;5071814;28;19912;-80
2024/03/16 11:43:03;;;;;;;;;;;;;;;18.59;42.72;99909.31;5071605;28;20006;-80
2024/03/16 11:45:28;;;;;;;;;;;;;;;18.71;44.12;99903.03;5070424;28;20415;-80
2024/03/16 11:47:54;;;;;;;;;;;;;;;18.88;44.73;99899.78;5071829;28;19912;-80
2024/03/16 11:50:19;;;;;;;;;;;;;;;18.77;42.25;99901.34;5071565;28;19970;-80
2024/03/16 11:52:45;;;;;;;;;;;;;;;18.78;42.82;99896.81;5071586;28;19943;-79
2024/03/16 11:55:10;;;;;;;;;;;;;;;18.79;41.31;99893.09;5070113;28;19920;-80
2024/03/16 11:57:36;;;;;;;;;;;;;;;18.70;43.36;99890.72;5071521;28;19915;-80
2024/03/16 12:00:02;;;;;;;;;;;;;;;18.60;43.08;99889.56;5071561;28;20410;-80
2024/03/16 12:02:28;;;;;;;;;;;;;;;18.45;40.56;99889.88;5071405;28;19920;-80
2024/03/16 12:04:54;;;;;;;;;;;;;;;18.33;43.10;99887.13;5071367;28;19923;-80
2024/03/16 12:07:19;;;;;;;;;;;;;;;18.24;41.84;99892.97;5070292;28;19912;-80
2024/03/16 12:09:46;;;;;;;;;;;;;;;18.18;42.07;99889.31;5070172;28;20485;-80
2024/03/16 12:12:11;;;;;;;;;;;;;;;18.12;41.34;99876.00;5071453;28;19916;-80
2024/03/16 12:14:36;;;;;;;;;;;;;;;18.09;41.89;99869.25;5071392;28;19935;-80
2024/03/16 12:17:04;;;;;;;;;;;;;;;17.98;43.79;99870.78;5071385;28;19920;-80
2024/03/16 12:19:32;;;;;;;;;;;;;;;17.84;41.62;99874.59;5071556;28;19940;-80
2024/03/16 12:21:57;;;;;;;;;;;;;;;17.70;44.27;99868.50;5071468;28;19919;-80
2024/03/16 12:24:23;;;;;;;;;;;;;;;17.45;41.86;99872.94;5071586;28;19913;-80
2024/03/16 12:26:49;;;;;;;;;;;;;;;17.32;44.35;99868.50;5071597;28;20010;-80
2024/03/16 12:29:16;;;;;;;;;;;;;;;17.21;43.64;99863.84;5071566;28;19912;-80
2024/03/16 12:31:42;;;;;;;;;;;;;;;17.15;42.75;99859.34;5071464;28;19918;-80
2024/03/16 12:34:10;;;;;;;;;;;;;;;17.15;45.01;99860.19;5071229;28;19912;-80
2024/03/16 12:36:35;;;;;;;;;;;;;;;17.21;43.78;99855.84;5069954;28;19923;-79
2024/03/16 12:39:00;;;;;;;;;;;;;;;17.14;44.87;99847.88;5071309;28;19912;-79
2024/03/16 12:41:26;;;;;;;;;;;;;;;17.11;44.81;99850.16;5071179;28;19917;-79
2024/03/16 12:43:51;;;;;;;;;;;;;;;17.13;44.92;99846.22;5071030;28;19912;-79
2024/03/16 12:46:16;;;;;;;;;;;;;;;17.16;44.63;99836.97;5069912;28;19916;-79